createdAt,value
2022-10-11T00:00:35.345Z,7.10
2022-10-11T00:03:12.420Z,8.10
2022-10-11T00:05:48.827Z,7.60
2022-10-11T00:08:24.969Z,7.80
2022-10-11T00:11:10.902Z,7.10
2022-10-11T00:13:47.690Z,8.30
2022-10-11T00:16:25.107Z,7.40
2022-10-11T00:19:02.363Z,7.70
2022-10-11T00:21:40.798Z,7.70
2022-10-11T00:24:18.260Z,7.50
2022-10-11T00:26:55.194Z,7.60
2022-10-11T00:29:31.819Z,7.00
2022-10-11T00:32:11.154Z,7.40
2022-10-11T00:34:48.194Z,7.80
2022-10-11T00:37:24.963Z,7.60
2022-10-11T00:40:01.604Z,7.50
2022-10-11T00:42:38.162Z,8.00
2022-10-11T00:46:02.469Z,7.30
2022-10-11T00:48:47.149Z,7.90
2022-10-11T00:51:33.812Z,7.20
2022-10-11T00:54:14.896Z,7.40
2022-10-11T00:56:56.616Z,7.60
2022-10-11T00:59:44.454Z,6.50
2022-10-11T01:02:26.254Z,7.20
2022-10-11T01:05:27.712Z,7.70
2022-10-11T01:08:01.070Z,7.60
2022-10-11T01:10:37.727Z,7.20
2022-10-11T01:13:25.750Z,7.80
2022-10-11T01:16:14.654Z,7.50
2022-10-11T01:19:04.654Z,7.60
2022-10-11T01:21:51.114Z,7.60
2022-10-11T01:25:00.955Z,7.50
2022-10-11T01:28:02.145Z,8.00
2022-10-11T01:30:39.849Z,7.90
2022-10-11T01:33:30.055Z,7.80
2022-10-11T01:36:20.607Z,8.20
2022-10-11T01:39:05.328Z,8.20
2022-10-11T01:41:48.835Z,8.30
2022-10-11T01:44:26.725Z,7.60
2022-10-11T01:47:04.090Z,8.30
2022-10-11T01:49:42.355Z,8.50
2022-10-11T01:52:19.937Z,7.90
2022-10-11T01:55:21.204Z,7.60
2022-10-11T01:58:21.871Z,8.30
2022-10-11T02:01:13.952Z,7.70
2022-10-11T02:04:00.860Z,8.30
2022-10-11T02:06:51.870Z,8.10
2022-10-11T02:09:39.182Z,7.80
2022-10-11T02:12:26.359Z,8.10
2022-10-11T02:15:05.282Z,8.50
2022-10-11T02:17:51.947Z,7.70
2022-10-11T02:20:32.951Z,8.50
2022-10-11T02:23:18.062Z,8.10
2022-10-11T02:25:58.656Z,7.70
2022-10-11T02:28:39.442Z,8.30
2022-10-11T02:31:18.394Z,7.70
2022-10-11T02:34:07.789Z,8.10
2022-10-11T02:36:53.744Z,7.80
2022-10-11T02:39:39.525Z,8.50
2022-10-11T02:42:23.885Z,8.10
2022-10-11T02:45:07.697Z,8.10
2022-10-11T02:47:46.112Z,7.70
2022-10-11T02:50:24.444Z,8.20
2022-10-11T02:53:01.729Z,8.40
2022-10-11T02:55:37.903Z,8.70
2022-10-11T02:58:14.218Z,8.20
2022-10-11T03:00:51.511Z,8.00
2022-10-11T03:03:28.757Z,7.60
2022-10-11T03:06:09.086Z,8.30
2022-10-11T03:08:45.797Z,8.20
2022-10-11T03:11:22.587Z,8.10
2022-10-11T03:13:59.797Z,8.20
2022-10-11T03:16:36.440Z,8.00
2022-10-11T03:19:16.968Z,7.40
2022-10-11T03:21:55.410Z,7.90
2022-10-11T03:24:32.258Z,8.20
2022-10-11T03:27:09.583Z,8.00
2022-10-11T03:29:46.234Z,7.20
2022-10-11T03:32:23.370Z,7.90
2022-10-11T03:35:00.245Z,7.50
2022-10-11T03:37:36.605Z,7.90
2022-10-11T03:40:20.223Z,9.10
2022-10-11T03:42:56.885Z,8.70
2022-10-11T03:45:33.633Z,8.30
2022-10-11T03:48:12.370Z,8.20
2022-10-11T03:50:49.182Z,8.00
2022-10-11T03:53:26.187Z,7.70
2022-10-11T03:56:08.236Z,7.90
2022-10-11T03:58:45.160Z,7.40
2022-10-11T04:01:22.392Z,7.80
2022-10-11T04:04:03.340Z,7.50
2022-10-11T04:06:39.380Z,8.80
2022-10-11T04:09:16.242Z,7.30
2022-10-11T04:11:53.856Z,7.60
2022-10-11T04:14:32.117Z,7.90
2022-10-11T04:17:09.057Z,7.80
2022-10-11T04:19:45.833Z,8.20
2022-10-11T04:22:23.113Z,9.20
2022-10-11T04:24:59.444Z,8.60
2022-10-11T04:27:37.536Z,9.80
2022-10-11T04:30:19.275Z,8.70
2022-10-11T04:32:56.564Z,9.70
2022-10-11T04:35:33.744Z,9.20
2022-10-11T04:38:11.082Z,8.90
2022-10-11T04:40:47.882Z,9.10
2022-10-11T04:43:23.995Z,9.40
2022-10-11T04:46:01.734Z,9.00
2022-10-11T04:48:39.197Z,10.30
2022-10-11T04:51:16.790Z,9.90
2022-10-11T04:53:53.444Z,9.40
2022-10-11T04:56:30.935Z,9.30
2022-10-11T04:59:08.564Z,10.00
2022-10-11T05:01:45.165Z,9.40
2022-10-11T05:04:21.592Z,9.50
2022-10-11T05:06:58.062Z,9.60
2022-10-11T05:09:34.612Z,9.80
2022-10-11T05:12:13.206Z,9.60
2022-10-11T05:14:50.635Z,8.70
2022-10-11T05:17:27.087Z,9.50
2022-10-11T05:20:04.029Z,9.10
2022-10-11T05:22:41.379Z,8.60
2022-10-11T05:25:17.984Z,8.60
2022-10-11T05:27:54.580Z,8.70
2022-10-11T05:30:31.296Z,9.20
2022-10-11T05:33:08.878Z,10.20
2022-10-11T05:35:46.184Z,10.10
2022-10-11T05:38:24.674Z,9.10
2022-10-11T05:41:05.182Z,9.00
2022-10-11T05:43:41.837Z,9.10
2022-10-11T05:46:19.245Z,9.00
2022-10-11T05:48:56.089Z,9.90
2022-10-11T05:51:34.047Z,9.60
2022-10-11T05:54:11.091Z,9.90
2022-10-11T05:56:47.720Z,9.20
2022-10-11T05:59:24.827Z,8.90
2022-10-11T06:02:01.804Z,9.30
2022-10-11T06:04:41.282Z,9.20
2022-10-11T06:07:19.052Z,9.30
2022-10-11T06:09:55.778Z,8.90
2022-10-11T06:12:34.154Z,10.60
2022-10-11T06:15:14.810Z,9.70
2022-10-11T06:17:52.409Z,10.50
2022-10-11T06:20:31.444Z,10.60
2022-10-11T06:23:08.934Z,10.50
2022-10-11T06:25:45.923Z,9.30
2022-10-11T06:28:21.996Z,10.30
2022-10-11T06:30:58.905Z,9.40
2022-10-11T06:33:35.240Z,9.40
2022-10-11T06:36:17.389Z,10.10
2022-10-11T06:38:56.057Z,9.90
2022-10-11T06:41:33.996Z,10.80
2022-10-11T06:44:14.423Z,11.00
2022-10-11T06:46:51.588Z,11.00
2022-10-11T06:49:28.977Z,10.90
2022-10-11T06:52:06.762Z,10.80
2022-10-11T06:54:45.027Z,11.50
2022-10-11T06:57:21.462Z,11.30
2022-10-11T06:59:59.153Z,11.30
2022-10-11T07:02:36.979Z,11.40
2022-10-11T07:05:18.209Z,12.00
2022-10-11T07:07:55.741Z,9.90
2022-10-11T07:10:32.968Z,10.70
2022-10-11T07:13:09.910Z,10.60
2022-10-11T07:15:48.169Z,10.90
2022-10-11T07:18:24.857Z,10.60
2022-10-11T07:21:02.141Z,10.80
2022-10-11T07:23:38.485Z,11.10
2022-10-11T07:26:18.004Z,10.70
2022-10-11T07:28:54.649Z,11.00
2022-10-11T07:31:30.846Z,11.20
2022-10-11T07:34:08.425Z,10.70
2022-10-11T07:36:45.606Z,10.50
2022-10-11T07:39:22.209Z,11.10
2022-10-11T07:41:59.622Z,10.40
2022-10-11T07:44:37.251Z,10.70
2022-10-11T07:47:14.185Z,11.50
2022-10-11T07:49:51.297Z,11.50
2022-10-11T07:52:28.338Z,10.40
2022-10-11T07:55:05.184Z,11.50
2022-10-11T07:57:42.527Z,11.30
2022-10-11T08:00:24.033Z,10.90
2022-10-11T08:03:01.440Z,10.60
2022-10-11T08:05:39.767Z,10.90
2022-10-11T08:08:16.622Z,11.40
2022-10-11T08:10:54.073Z,10.10
2022-10-11T08:13:30.411Z,11.80
2022-10-11T08:16:16.170Z,10.60
2022-10-11T08:18:54.526Z,10.60
2022-10-11T08:21:31.904Z,10.80
2022-10-11T08:24:10.602Z,10.90
2022-10-11T08:26:47.399Z,10.30
2022-10-11T08:29:23.613Z,10.70
2022-10-11T08:32:00.730Z,11.60
2022-10-11T08:34:36.392Z,11.40
2022-10-11T08:37:14.332Z,10.90
2022-10-11T08:39:51.533Z,11.00
2022-10-11T08:42:39.005Z,11.10
2022-10-11T08:45:29.145Z,12.20
2022-10-11T08:48:15.804Z,12.50
2022-10-11T08:50:56.900Z,12.10
2022-10-11T08:53:46.162Z,13.30
2022-10-11T08:56:26.882Z,13.00
2022-10-11T08:59:12.279Z,12.30
2022-10-11T09:01:56.950Z,13.40
2022-10-11T09:04:34.074Z,13.40
2022-10-11T09:07:26.941Z,13.30
2022-10-11T09:10:29.867Z,12.90
2022-10-11T09:13:20.850Z,12.20
2022-10-11T09:16:09.532Z,13.70
2022-10-11T09:19:13.072Z,13.60
2022-10-11T09:22:02.468Z,13.70
2022-10-11T09:25:00.921Z,12.80
2022-10-11T09:28:03.159Z,13.10
2022-10-11T09:30:49.127Z,13.20
2022-10-11T09:33:44.653Z,13.60
2022-10-11T09:36:31.641Z,13.80
2022-10-11T09:39:18.700Z,12.70
2022-10-11T09:42:05.061Z,12.40
2022-10-11T09:44:50.929Z,13.30
2022-10-11T09:47:31.691Z,13.30
2022-10-11T09:50:17.057Z,14.60
2022-10-11T09:53:01.100Z,14.00
2022-10-11T09:55:50.634Z,13.60
2022-10-11T09:58:40.292Z,14.70
2022-10-11T10:01:26.604Z,13.40
2022-10-11T10:04:28.300Z,13.90
2022-10-11T10:07:19.432Z,13.70
2022-10-11T10:09:59.080Z,13.40
2022-10-11T10:12:36.397Z,13.40
2022-10-11T10:15:23.574Z,13.40
2022-10-11T10:18:00.742Z,13.60
2022-10-11T10:20:40.771Z,13.10
2022-10-11T10:23:29.335Z,12.40
2022-10-11T10:26:22.831Z,12.50
2022-10-11T10:29:20.214Z,14.60
2022-10-11T10:32:15.943Z,13.00
2022-10-11T10:35:05.588Z,13.70
2022-10-11T10:37:49.141Z,12.30
2022-10-11T10:40:32.824Z,13.70
2022-10-11T10:43:12.207Z,14.60
2022-10-11T10:46:12.526Z,14.50
2022-10-11T10:49:41.550Z,13.50
2022-10-11T10:52:16.458Z,13.20
2022-10-11T10:55:01.236Z,14.10
2022-10-11T10:57:50.132Z,13.00
2022-10-11T11:00:41.731Z,13.90
2022-10-11T11:03:28.766Z,14.30
2022-10-11T11:06:14.749Z,14.00
2022-10-11T11:09:12.979Z,15.00
2022-10-11T11:12:08.191Z,15.10
2022-10-11T11:15:03.876Z,15.30
2022-10-11T11:17:58.408Z,15.70
2022-10-11T11:20:59.073Z,14.60
2022-10-11T11:23:49.459Z,15.50
2022-10-11T11:26:44.041Z,15.10
2022-10-11T11:29:36.832Z,16.50
2022-10-11T11:32:27.599Z,15.60
2022-10-11T11:35:13.243Z,14.80
2022-10-11T11:37:59.283Z,15.40
2022-10-11T11:40:45.868Z,14.80
2022-10-11T11:43:30.137Z,16.30
2022-10-11T11:46:15.023Z,15.20
2022-10-11T11:48:54.932Z,15.10
2022-10-11T11:51:37.652Z,15.90
2022-10-11T11:54:29.578Z,15.20
2022-10-11T11:57:15.994Z,15.60
2022-10-11T12:00:04.000Z,16.10
2022-10-11T12:02:55.560Z,14.80
2022-10-11T12:05:37.111Z,14.80
2022-10-11T12:08:33.110Z,14.30
2022-10-11T12:11:21.793Z,13.90
2022-10-11T12:14:01.166Z,13.30
2022-10-11T12:16:58.234Z,13.90
2022-10-11T12:19:35.387Z,14.30
2022-10-11T12:22:58.524Z,14.30
2022-10-11T12:25:48.597Z,14.30
2022-10-11T12:29:06.988Z,15.40
2022-10-11T12:31:46.208Z,14.70
2022-10-11T12:37:54.897Z,15.80
2022-10-11T12:40:48.724Z,15.20
2022-10-11T12:44:11.301Z,13.30
2022-10-11T12:47:16.264Z,14.20
2022-10-11T12:50:16.162Z,14.10
2022-10-11T12:53:13.237Z,14.20
2022-10-11T12:56:05.183Z,13.60
2022-10-11T12:58:43.913Z,14.00
2022-10-11T13:01:32.176Z,14.40
2022-10-11T13:04:14.071Z,14.00
2022-10-11T13:06:57.072Z,14.90
2022-10-11T13:09:39.252Z,13.40
2022-10-11T13:12:23.548Z,13.60
2022-10-11T13:15:11.732Z,13.60
2022-10-11T13:17:49.295Z,12.90
2022-10-11T13:20:30.473Z,11.70
2022-10-11T13:23:07.326Z,12.30
2022-10-11T13:25:46.540Z,10.70
2022-10-11T13:28:23.865Z,11.90
2022-10-11T13:31:03.628Z,11.90
2022-10-11T13:33:46.188Z,10.90
2022-10-11T13:36:24.189Z,11.60
2022-10-11T13:39:03.070Z,11.80
2022-10-11T13:41:39.230Z,11.40
2022-10-11T13:44:22.312Z,10.00
2022-10-11T13:46:58.678Z,12.30
2022-10-11T13:49:43.849Z,10.70
2022-10-11T13:52:29.855Z,10.60
2022-10-11T13:55:25.044Z,11.10
2022-10-11T13:58:03.651Z,10.20
2022-10-11T14:00:54.937Z,9.50
2022-10-11T14:03:43.458Z,9.00
2022-10-11T14:06:19.529Z,9.70
2022-10-11T14:08:59.559Z,9.60
2022-10-11T14:11:44.175Z,9.60
2022-10-11T14:14:50.260Z,9.20
2022-10-11T14:17:40.939Z,9.00
2022-10-11T14:20:42.509Z,10.10
2022-10-11T14:23:19.547Z,10.70
2022-10-11T14:25:57.334Z,11.40
2022-10-11T14:28:34.194Z,10.80
2022-10-11T14:31:11.676Z,10.00
2022-10-11T14:33:47.754Z,9.80
2022-10-11T14:36:24.138Z,7.50
2022-10-11T14:39:01.715Z,6.90
2022-10-11T14:41:38.194Z,6.70
2022-10-11T14:44:14.835Z,6.00
2022-10-11T14:46:54.304Z,6.60
2022-10-11T14:49:35.101Z,7.20
2022-10-11T14:52:16.085Z,9.70
2022-10-11T14:54:53.635Z,8.10
2022-10-11T14:57:31.332Z,8.40
2022-10-11T15:00:10.058Z,8.80
2022-10-11T15:02:47.970Z,8.70
2022-10-11T15:05:29.821Z,7.90
2022-10-11T15:08:11.935Z,8.60
2022-10-11T15:10:49.444Z,7.60
2022-10-11T15:13:26.391Z,8.30
2022-10-11T15:16:03.634Z,8.20
2022-10-11T15:18:40.743Z,8.80
2022-10-11T15:21:21.437Z,7.70
2022-10-11T15:23:58.196Z,6.40
2022-10-11T15:26:36.740Z,7.10
2022-10-11T15:29:17.270Z,4.80
2022-10-11T15:31:54.224Z,5.40
2022-10-11T15:34:30.915Z,4.60
2022-10-11T15:37:08.094Z,5.20
2022-10-11T15:39:45.070Z,6.10
2022-10-11T15:42:21.515Z,5.50
2022-10-11T15:44:59.069Z,5.50
2022-10-11T15:47:36.297Z,5.10
2022-10-11T15:50:35.587Z,5.50
2022-10-11T15:53:16.004Z,5.20
2022-10-11T15:55:57.671Z,5.80
2022-10-11T15:58:37.908Z,5.20
2022-10-11T16:01:22.410Z,5.40
2022-10-11T16:03:59.662Z,5.20
2022-10-11T16:06:37.144Z,4.90
2022-10-11T16:09:15.479Z,4.70
2022-10-11T16:11:52.735Z,5.10
2022-10-11T16:14:29.570Z,4.90
2022-10-11T16:17:06.716Z,5.60
2022-10-11T16:19:44.795Z,5.30
2022-10-11T16:22:22.331Z,5.20
2022-10-11T16:24:59.422Z,6.90
2022-10-11T16:27:36.072Z,6.30
2022-10-11T16:30:17.303Z,7.70
2022-10-11T16:32:54.241Z,6.30
2022-10-11T16:35:32.674Z,5.30
2022-10-11T16:38:11.346Z,5.00
2022-10-11T16:40:50.141Z,5.10
2022-10-11T16:43:27.272Z,5.20
2022-10-11T16:46:06.513Z,5.70
2022-10-11T16:48:43.157Z,5.90
2022-10-11T16:51:21.200Z,5.30
2022-10-11T16:53:58.349Z,5.40
2022-10-11T16:56:39.738Z,6.30
2022-10-11T16:59:16.377Z,5.80
2022-10-11T17:01:55.900Z,6.20
2022-10-11T17:04:33.605Z,6.20
2022-10-11T17:07:13.089Z,6.60
2022-10-11T17:09:51.078Z,5.60
2022-10-11T17:12:29.969Z,5.60
2022-10-11T17:15:07.453Z,6.20
2022-10-11T17:17:44.887Z,6.10
2022-10-11T17:20:26.179Z,5.40
2022-10-11T17:23:01.945Z,5.60
2022-10-11T17:25:42.234Z,5.60
2022-10-11T17:28:20.156Z,5.10
2022-10-11T17:31:01.006Z,5.70
2022-10-11T17:33:37.228Z,5.70
2022-10-11T17:36:25.781Z,5.90
2022-10-11T17:39:04.981Z,5.80
2022-10-11T17:41:41.786Z,5.60
2022-10-11T17:44:20.115Z,5.50
2022-10-11T17:46:56.932Z,5.70
2022-10-11T17:49:33.832Z,5.40
2022-10-11T17:52:09.952Z,5.70
2022-10-11T17:54:46.985Z,5.20
2022-10-11T17:57:23.442Z,5.10
2022-10-11T17:59:59.723Z,4.90
2022-10-11T18:02:36.125Z,5.80
2022-10-11T18:05:18.423Z,4.80
2022-10-11T18:07:57.254Z,5.20
2022-10-11T18:10:34.976Z,4.80
2022-10-11T18:13:15.214Z,5.20
2022-10-11T18:15:53.716Z,5.40
2022-10-11T18:18:30.504Z,5.20
2022-10-11T18:21:08.732Z,5.50
2022-10-11T18:23:45.799Z,4.80
2022-10-11T18:26:29.406Z,5.20
2022-10-11T18:29:07.269Z,5.30
2022-10-11T18:31:44.278Z,5.20
2022-10-11T18:34:20.466Z,4.80
2022-10-11T18:36:56.291Z,4.90
2022-10-11T18:39:32.678Z,5.10
2022-10-11T18:42:10.126Z,5.30
2022-10-11T18:44:46.898Z,5.30
2022-10-11T18:47:23.513Z,4.60
2022-10-11T18:50:00.192Z,4.70
2022-10-11T18:52:39.198Z,4.90
2022-10-11T18:55:19.831Z,4.30
2022-10-11T18:57:57.419Z,4.30
2022-10-11T19:00:42.156Z,4.20
2022-10-11T19:03:18.325Z,4.20
2022-10-11T19:05:55.254Z,4.30
2022-10-11T19:08:32.750Z,4.30
2022-10-11T19:11:15.958Z,4.50
2022-10-11T19:13:56.245Z,4.40
2022-10-11T19:16:33.986Z,4.80
2022-10-11T19:19:11.310Z,4.80
2022-10-11T19:21:49.597Z,6.00
2022-10-11T19:24:28.761Z,4.70
2022-10-11T19:27:06.169Z,4.80
2022-10-11T19:29:42.458Z,4.60
2022-10-11T19:32:19.347Z,4.00
2022-10-11T19:34:55.950Z,4.60
2022-10-11T19:37:32.782Z,4.50
2022-10-11T19:40:14.155Z,4.50
2022-10-11T19:42:51.882Z,4.10
2022-10-11T19:45:28.061Z,4.10
2022-10-11T19:48:04.616Z,4.20
2022-10-11T19:50:42.399Z,3.90
2022-10-11T19:53:18.293Z,4.00
2022-10-11T19:55:55.003Z,3.90
2022-10-11T19:58:32.492Z,3.50
2022-10-11T20:01:13.428Z,4.10
2022-10-11T20:03:53.994Z,3.80
2022-10-11T20:06:38.108Z,3.90
2022-10-11T20:09:29.114Z,4.00
2022-10-11T20:12:06.152Z,4.00
2022-10-11T20:14:43.094Z,4.00
2022-10-11T20:17:19.585Z,3.50
2022-10-11T20:19:55.949Z,3.90
2022-10-11T20:22:32.245Z,4.80
2022-10-11T20:25:11.589Z,3.50
2022-10-11T20:27:51.113Z,4.00
2022-10-11T20:30:28.426Z,4.20
2022-10-11T20:33:04.233Z,4.30
2022-10-11T20:35:41.407Z,3.70
2022-10-11T20:38:17.768Z,3.90
2022-10-11T20:40:55.305Z,3.80
2022-10-11T20:43:32.745Z,4.00
2022-10-11T20:46:10.833Z,4.00
2022-10-11T20:49:01.128Z,4.30
2022-10-11T20:51:40.603Z,4.70
2022-10-11T20:54:17.201Z,4.30
2022-10-11T20:56:53.747Z,4.00
2022-10-11T20:59:32.569Z,4.10
2022-10-11T21:02:18.019Z,4.20
2022-10-11T21:04:58.098Z,3.70
2022-10-11T21:07:37.066Z,4.10
2022-10-11T21:10:15.630Z,4.00
2022-10-11T21:12:52.502Z,4.30
2022-10-11T21:15:31.677Z,4.00
2022-10-11T21:18:12.284Z,4.20
2022-10-11T21:20:49.154Z,4.30
2022-10-11T21:23:25.848Z,4.00
2022-10-11T21:26:07.866Z,3.80
2022-10-11T21:28:47.136Z,3.90
2022-10-11T21:31:28.412Z,3.90
2022-10-11T21:34:11.727Z,4.10
2022-10-11T21:36:49.398Z,4.00
2022-10-11T21:39:29.910Z,4.00
2022-10-11T21:42:07.430Z,3.90
2022-10-11T21:44:43.836Z,3.50
2022-10-11T21:47:20.593Z,3.60
2022-10-11T21:50:09.869Z,3.70
2022-10-11T21:52:46.547Z,5.60
2022-10-11T21:55:24.483Z,3.70
2022-10-11T21:58:02.520Z,3.90
2022-10-11T22:00:39.376Z,4.00
2022-10-11T22:03:16.836Z,3.70
2022-10-11T22:05:54.166Z,3.90
2022-10-11T22:08:34.865Z,3.40
2022-10-11T22:11:12.062Z,3.60
2022-10-11T22:13:48.567Z,3.60
2022-10-11T22:16:25.550Z,3.70
2022-10-11T22:19:01.935Z,3.80
2022-10-11T22:21:44.910Z,3.20
2022-10-11T22:24:22.517Z,3.70
2022-10-11T22:26:59.890Z,3.70
2022-10-11T22:29:37.499Z,3.30
2022-10-11T22:32:14.734Z,3.40
2022-10-11T22:34:51.660Z,3.60
2022-10-11T22:37:28.684Z,3.70
2022-10-11T22:40:05.917Z,3.50
2022-10-11T22:42:42.376Z,3.50
2022-10-11T22:45:21.184Z,3.60
2022-10-11T22:47:57.847Z,3.40
2022-10-11T22:50:34.334Z,3.70
2022-10-11T22:53:12.178Z,3.50
2022-10-11T22:55:49.471Z,3.30
2022-10-11T22:58:26.148Z,3.30
2022-10-11T23:01:08.220Z,3.40
2022-10-11T23:03:45.143Z,3.10
2022-10-11T23:06:21.801Z,3.20
2022-10-11T23:08:58.106Z,3.30
2022-10-11T23:11:35.054Z,3.90
2022-10-11T23:14:11.168Z,3.40
2022-10-11T23:16:47.855Z,2.90
2022-10-11T23:19:24.462Z,4.00
2022-10-11T23:22:00.534Z,3.70
2022-10-11T23:24:37.100Z,3.20
2022-10-11T23:27:12.667Z,3.80
2022-10-11T23:29:48.945Z,3.40
2022-10-11T23:32:26.394Z,3.30
2022-10-11T23:35:02.524Z,3.50
2022-10-11T23:37:39.256Z,3.40
2022-10-11T23:40:19.120Z,3.40
2022-10-11T23:42:55.962Z,3.50
2022-10-11T23:45:32.014Z,3.40
2022-10-11T23:48:09.171Z,4.20
2022-10-11T23:50:45.488Z,4.30
2022-10-11T23:53:21.875Z,3.70
2022-10-11T23:55:58.499Z,3.80
2022-10-11T23:58:35.193Z,4.40
